createdAt,value
2018-06-15T00:00:43.332Z,99.99
2018-06-15T00:01:43.309Z,99.99
2018-06-15T00:02:43.283Z,99.99
2018-06-15T00:03:43.258Z,99.99
2018-06-15T00:04:43.236Z,99.99
2018-06-15T00:05:43.210Z,99.99
2018-06-15T00:06:43.185Z,99.99
2018-06-15T00:07:43.161Z,99.99
2018-06-15T00:08:43.138Z,99.99
2018-06-15T00:09:43.113Z,99.99
2018-06-15T00:10:43.089Z,99.99
2018-06-15T00:11:43.064Z,99.99
2018-06-15T00:12:43.044Z,99.99
2018-06-15T00:13:43.019Z,99.99
2018-06-15T00:14:42.994Z,99.99
2018-06-15T00:15:42.966Z,99.99
2018-06-15T00:16:42.943Z,99.99
2018-06-15T00:17:42.920Z,99.99
2018-06-15T00:18:42.895Z,99.99
2018-06-15T00:19:42.872Z,99.99
2018-06-15T00:20:42.849Z,99.99
2018-06-15T00:21:42.824Z,99.99
2018-06-15T00:22:42.805Z,99.99
2018-06-15T00:23:42.776Z,99.99
2018-06-15T00:24:42.750Z,99.99
2018-06-15T00:25:42.727Z,99.99
2018-06-15T00:26:42.702Z,99.99
2018-06-15T00:27:42.678Z,99.99
2018-06-15T00:28:42.655Z,99.99
2018-06-15T00:29:42.631Z,99.99
2018-06-15T00:30:42.607Z,99.99
2018-06-15T00:31:42.581Z,99.99
2018-06-15T00:32:42.559Z,99.99
2018-06-15T00:33:42.533Z,99.99
2018-06-15T00:34:42.509Z,99.99
2018-06-15T00:35:42.487Z,99.99
2018-06-15T00:36:42.459Z,99.99
2018-06-15T00:37:42.440Z,99.99
2018-06-15T00:38:42.412Z,99.99
2018-06-15T00:39:42.388Z,99.99
2018-06-15T00:40:42.364Z,99.99
2018-06-15T00:41:42.340Z,99.99
2018-06-15T00:42:42.316Z,99.99
2018-06-15T00:43:42.291Z,99.99
2018-06-15T00:44:42.268Z,99.99
2018-06-15T00:45:42.244Z,99.99
2018-06-15T00:46:42.218Z,99.99
2018-06-15T00:47:42.194Z,99.99
2018-06-15T00:48:42.171Z,99.99
2018-06-15T00:49:42.151Z,99.99
2018-06-15T00:50:42.123Z,99.99
2018-06-15T00:51:42.099Z,99.99
2018-06-15T00:52:42.087Z,99.99
2018-06-15T00:53:42.050Z,99.99
2018-06-15T00:54:42.029Z,99.99
2018-06-15T00:55:42.007Z,99.99
2018-06-15T00:56:41.979Z,99.99
2018-06-15T00:57:41.969Z,99.99
2018-06-15T00:58:41.930Z,99.99
2018-06-15T00:59:41.908Z,99.99
2018-06-15T01:00:41.885Z,99.99
2018-06-15T01:01:41.856Z,99.99
2018-06-15T01:02:41.835Z,99.99
2018-06-15T01:03:41.816Z,99.99
2018-06-15T01:04:41.935Z,99.99
2018-06-15T01:05:41.761Z,99.99
2018-06-15T01:06:41.738Z,99.99
2018-06-15T01:07:41.710Z,99.99
2018-06-15T01:08:41.688Z,99.99
2018-06-15T01:09:41.662Z,99.99
2018-06-15T01:10:41.640Z,99.99
2018-06-15T01:11:41.616Z,99.99
2018-06-15T01:12:41.596Z,99.99
2018-06-15T01:13:41.566Z,99.99
2018-06-15T01:14:41.542Z,99.99
2018-06-15T01:15:41.522Z,99.99
2018-06-15T01:16:41.493Z,99.99
2018-06-15T01:17:41.471Z,99.99
2018-06-15T01:18:41.445Z,99.99
2018-06-15T01:19:41.420Z,99.99
2018-06-15T01:20:41.447Z,99.99
2018-06-15T01:21:41.372Z,99.99
2018-06-15T01:22:41.504Z,99.99
2018-06-15T01:23:41.321Z,99.99
2018-06-15T01:24:41.298Z,99.99
2018-06-15T01:25:41.272Z,99.99
2018-06-15T01:26:41.249Z,99.99
2018-06-15T01:27:41.224Z,99.99
2018-06-15T01:28:41.198Z,99.99
2018-06-15T01:29:41.175Z,99.99
2018-06-15T01:30:41.150Z,99.99
2018-06-15T01:31:41.125Z,99.99
2018-06-15T01:32:41.101Z,99.99
2018-06-15T01:33:41.079Z,99.99
2018-06-15T01:34:41.053Z,99.99
2018-06-15T01:35:41.028Z,99.99
2018-06-15T01:36:41.004Z,99.99
2018-06-15T01:37:40.979Z,99.99
2018-06-15T01:38:40.959Z,99.99
2018-06-15T01:39:40.929Z,99.99
2018-06-15T01:40:41.707Z,99.99
2018-06-15T01:41:40.886Z,99.99
2018-06-15T01:42:40.859Z,99.99
2018-06-15T01:43:40.831Z,99.99
2018-06-15T01:44:40.809Z,99.99
2018-06-15T01:45:40.783Z,99.99
2018-06-15T01:46:40.759Z,99.99
2018-06-15T01:47:40.732Z,99.99
2018-06-15T01:48:40.709Z,99.99
2018-06-15T01:49:40.686Z,99.99
2018-06-15T01:50:40.664Z,99.99
2018-06-15T01:51:40.635Z,99.99
2018-06-15T01:52:40.609Z,99.99
2018-06-15T01:53:40.586Z,99.99
2018-06-15T01:54:40.762Z,99.99
2018-06-15T01:55:40.536Z,99.99
2018-06-15T01:56:40.511Z,99.99
2018-06-15T01:57:40.493Z,99.99
2018-06-15T01:58:40.466Z,99.99
2018-06-15T01:59:40.437Z,99.99
2018-06-15T02:00:40.413Z,99.99
2018-06-15T02:01:40.388Z,99.99
2018-06-15T02:02:40.364Z,99.99
2018-06-15T02:03:40.339Z,99.99
2018-06-15T02:04:40.313Z,99.99
2018-06-15T02:05:40.289Z,99.99
2018-06-15T02:06:40.265Z,99.99
2018-06-15T02:07:40.241Z,99.99
2018-06-15T02:08:40.214Z,99.99
2018-06-15T02:09:40.190Z,99.99
2018-06-15T02:10:40.169Z,99.99
2018-06-15T02:11:40.140Z,99.99
2018-06-15T02:12:40.118Z,99.99
2018-06-15T02:13:40.091Z,99.99
2018-06-15T02:14:40.069Z,99.99
2018-06-15T02:15:40.041Z,99.99
2018-06-15T02:16:40.020Z,99.99
2018-06-15T02:17:39.993Z,99.99
2018-06-15T02:18:39.971Z,99.99
2018-06-15T02:19:39.942Z,99.99
2018-06-15T02:20:39.917Z,99.99
2018-06-15T02:21:39.894Z,99.99
2018-06-15T02:22:40.019Z,99.99
2018-06-15T02:23:39.844Z,99.99
2018-06-15T02:24:39.819Z,99.99
2018-06-15T02:25:39.795Z,99.99
2018-06-15T02:26:39.770Z,99.99
2018-06-15T02:27:39.745Z,99.99
2018-06-15T02:28:39.927Z,99.99
2018-06-15T02:29:39.700Z,99.99
2018-06-15T02:30:39.675Z,99.99
2018-06-15T02:31:39.645Z,99.99
2018-06-15T02:32:39.626Z,99.99
2018-06-15T02:33:39.597Z,99.99
2018-06-15T02:34:39.575Z,99.99
2018-06-15T02:35:39.547Z,99.99
2018-06-15T02:36:39.527Z,99.99
2018-06-15T02:37:39.498Z,99.99
2018-06-15T02:38:39.477Z,99.99
2018-06-15T02:39:39.447Z,99.99
2018-06-15T02:40:39.424Z,99.99
2018-06-15T02:41:39.397Z,99.99
2018-06-15T02:42:39.373Z,99.99
2018-06-15T02:43:39.347Z,99.99
2018-06-15T02:44:39.325Z,99.99
2018-06-15T02:45:39.299Z,99.99
2018-06-15T02:46:39.275Z,99.99
2018-06-15T02:47:39.249Z,99.99
2018-06-15T02:48:39.224Z,99.99
2018-06-15T02:49:39.200Z,99.99
2018-06-15T02:50:39.175Z,99.99
2018-06-15T02:51:39.149Z,99.99
2018-06-15T02:52:39.124Z,99.99
2018-06-15T02:53:39.100Z,99.99
2018-06-15T02:54:39.076Z,99.99
2018-06-15T02:55:39.055Z,99.99
2018-06-15T02:56:39.027Z,99.99
2018-06-15T02:57:39.001Z,99.99
2018-06-15T02:58:38.979Z,99.99
2018-06-15T02:59:38.952Z,99.99
2018-06-15T03:00:38.936Z,99.99
2018-06-15T03:01:38.903Z,99.99
2018-06-15T03:02:38.877Z,99.99
2018-06-15T03:03:39.003Z,99.99
2018-06-15T03:04:38.827Z,99.99
2018-06-15T03:05:38.804Z,99.99
2018-06-15T03:06:38.780Z,99.99
2018-06-15T03:07:38.752Z,99.99
2018-06-15T03:08:38.731Z,99.99
2018-06-15T03:09:39.104Z,99.99
2018-06-15T03:10:38.702Z,99.99
2018-06-15T03:11:38.660Z,99.99
2018-06-15T03:12:38.629Z,99.99
2018-06-15T03:13:38.608Z,99.99
2018-06-15T03:14:38.580Z,99.99
2018-06-15T03:15:38.705Z,99.99
2018-06-15T03:16:38.531Z,99.99
2018-06-15T03:17:38.507Z,99.99
2018-06-15T03:18:38.482Z,99.99
2018-06-15T03:19:38.456Z,99.99
2018-06-15T03:20:38.431Z,99.99
2018-06-15T03:21:38.442Z,99.99
2018-06-15T03:22:38.382Z,99.99
2018-06-15T03:23:38.356Z,99.99
2018-06-15T03:24:38.332Z,99.99
2018-06-15T03:25:38.307Z,99.99
2018-06-15T03:26:38.283Z,99.99
2018-06-15T03:27:38.408Z,99.99
2018-06-15T03:28:38.231Z,99.99
2018-06-15T03:29:38.208Z,99.99
2018-06-15T03:30:38.186Z,99.99
2018-06-15T03:31:38.158Z,99.99
2018-06-15T03:32:38.136Z,99.99
2018-06-15T03:33:38.110Z,99.99
2018-06-15T03:34:38.087Z,99.99
2018-06-15T03:35:38.060Z,99.99
2018-06-15T03:36:38.036Z,99.99
2018-06-15T03:37:38.031Z,99.99
2018-06-15T03:38:37.986Z,99.99
2018-06-15T03:39:37.961Z,99.99
2018-06-15T03:40:37.936Z,99.99
2018-06-15T03:41:37.912Z,99.99
2018-06-15T03:42:37.891Z,99.99
2018-06-15T03:43:37.861Z,99.99
2018-06-15T03:44:38.038Z,99.99
2018-06-15T03:45:37.816Z,99.99
2018-06-15T03:46:37.788Z,99.99
2018-06-15T03:47:37.762Z,99.99
2018-06-15T03:48:37.739Z,99.99
2018-06-15T03:49:37.716Z,99.99
2018-06-15T03:50:37.689Z,99.99
2018-06-15T03:51:37.664Z,99.99
2018-06-15T03:52:37.640Z,99.99
2018-06-15T03:53:37.620Z,99.99
2018-06-15T03:54:37.591Z,99.99
2018-06-15T03:55:37.568Z,99.99
2018-06-15T03:56:37.542Z,99.99
2018-06-15T03:57:37.519Z,99.99
2018-06-15T03:58:37.696Z,99.99
2018-06-15T03:59:37.467Z,99.99
2018-06-15T04:00:37.443Z,99.99
2018-06-15T04:01:37.418Z,99.99
2018-06-15T04:02:37.395Z,99.99
2018-06-15T04:03:37.369Z,99.99
2018-06-15T04:04:37.345Z,99.99
2018-06-15T04:05:37.322Z,99.99
2018-06-15T04:06:37.297Z,99.99
2018-06-15T04:07:37.275Z,99.99
2018-06-15T04:08:37.248Z,99.99
2018-06-15T04:09:37.223Z,99.99
2018-06-15T04:10:37.199Z,99.99
2018-06-15T04:11:37.175Z,99.99
2018-06-15T04:12:37.151Z,99.99
2018-06-15T04:13:37.127Z,99.99
2018-06-15T04:14:37.107Z,99.99
2018-06-15T04:15:37.098Z,99.99
2018-06-15T04:16:37.057Z,99.99
2018-06-15T04:17:37.029Z,99.99
2018-06-15T04:18:37.010Z,99.99
2018-06-15T04:19:36.982Z,99.99
2018-06-15T04:20:36.959Z,99.99
2018-06-15T04:21:36.936Z,99.99
2018-06-15T04:22:36.910Z,99.99
2018-06-15T04:23:36.887Z,99.99
2018-06-15T04:24:36.867Z,99.99
2018-06-15T04:25:37.045Z,99.99
2018-06-15T04:26:36.818Z,99.99
2018-06-15T04:27:36.794Z,99.99
2018-06-15T04:28:36.770Z,99.99
2018-06-15T04:29:36.747Z,99.99
2018-06-15T04:30:36.723Z,99.99
2018-06-15T04:31:36.699Z,99.99
2018-06-15T04:32:36.878Z,99.99
2018-06-15T04:33:36.855Z,99.99
2018-06-15T04:34:36.629Z,99.99
2018-06-15T04:35:36.606Z,99.99
2018-06-15T04:36:36.583Z,99.99
2018-06-15T04:37:36.560Z,99.99
2018-06-15T04:38:36.744Z,99.99
2018-06-15T04:39:36.518Z,99.99
2018-06-15T04:40:36.692Z,99.99
2018-06-15T04:41:36.469Z,99.99
2018-06-15T04:42:36.647Z,99.99
2018-06-15T04:43:36.421Z,99.99
2018-06-15T04:44:36.397Z,99.99
2018-06-15T04:45:36.376Z,99.99
2018-06-15T04:46:36.357Z,99.99
2018-06-15T04:47:36.329Z,99.99
2018-06-15T04:48:36.309Z,99.99
2018-06-15T04:49:36.285Z,99.99
2018-06-15T04:50:36.273Z,99.99
2018-06-15T04:51:36.239Z,99.99
2018-06-15T04:52:36.217Z,99.99
2018-06-15T04:53:36.194Z,99.99
2018-06-15T04:54:36.172Z,99.99
2018-06-15T04:55:36.150Z,99.99
2018-06-15T04:56:36.167Z,99.99
2018-06-15T04:57:36.106Z,99.99
2018-06-15T04:58:36.081Z,99.99
2018-06-15T04:59:36.065Z,99.99
2018-06-15T05:00:36.047Z,99.99
2018-06-15T05:01:36.028Z,99.99
2018-06-15T05:02:35.990Z,99.99
2018-06-15T05:03:35.982Z,99.99
2018-06-15T05:04:35.947Z,99.99
2018-06-15T05:05:35.927Z,99.99
2018-06-15T05:06:35.902Z,99.99
2018-06-15T05:07:35.879Z,99.99
2018-06-15T05:08:35.857Z,99.99
2018-06-15T05:09:35.842Z,99.99
2018-06-15T05:10:35.813Z,99.99
2018-06-15T05:11:35.790Z,99.99
2018-06-15T05:12:35.768Z,99.99
2018-06-15T05:13:35.746Z,99.99
2018-06-15T05:14:35.728Z,99.99
2018-06-15T05:15:35.701Z,99.99
2018-06-15T05:16:35.680Z,99.99
2018-06-15T05:17:35.658Z,99.99
2018-06-15T05:18:35.642Z,99.99
2018-06-15T05:19:35.613Z,99.99
2018-06-15T05:20:35.599Z,99.99
2018-06-15T05:21:35.571Z,99.99
2018-06-15T05:22:35.554Z,99.99
2018-06-15T05:23:35.528Z,99.99
2018-06-15T05:24:35.655Z,99.99
2018-06-15T05:25:35.484Z,99.99
2018-06-15T05:26:35.467Z,99.99
2018-06-15T05:27:35.442Z,99.99
2018-06-15T05:28:35.423Z,99.99
2018-06-15T05:29:35.396Z,99.99
2018-06-15T05:30:35.375Z,99.99
2018-06-15T05:31:35.356Z,99.99
2018-06-15T05:32:35.330Z,99.99
2018-06-15T05:33:35.511Z,99.99
2018-06-15T05:34:35.288Z,99.99
2018-06-15T05:35:35.265Z,99.99
2018-06-15T05:36:35.244Z,99.99
2018-06-15T05:37:35.223Z,99.99
2018-06-15T05:38:35.201Z,99.99
2018-06-15T05:39:35.180Z,99.99
2018-06-15T05:40:35.159Z,99.99
2018-06-15T05:41:35.137Z,99.99
2018-06-15T05:42:35.367Z,99.99
2018-06-15T05:43:35.096Z,99.99
2018-06-15T05:44:35.076Z,99.99
2018-06-15T05:45:35.055Z,99.99
2018-06-15T05:46:35.041Z,99.99
2018-06-15T05:47:35.015Z,99.99
2018-06-15T05:48:34.994Z,99.99
2018-06-15T05:49:34.974Z,99.99
2018-06-15T05:50:34.961Z,99.99
2018-06-15T05:51:34.937Z,99.99
2018-06-15T05:52:34.913Z,99.99
2018-06-15T05:53:34.893Z,99.99
2018-06-15T05:54:34.874Z,99.99
2018-06-15T05:55:34.852Z,99.99
2018-06-15T05:56:34.835Z,99.99
2018-06-15T05:57:34.812Z,99.99
2018-06-15T05:58:34.792Z,99.99
2018-06-15T05:59:34.772Z,99.99
2018-06-15T06:00:34.751Z,99.99
2018-06-15T06:01:34.732Z,99.99
2018-06-15T06:02:34.713Z,99.99
2018-06-15T06:03:34.691Z,99.99
2018-06-15T06:04:34.875Z,99.99
2018-06-15T06:05:34.657Z,99.99
2018-06-15T06:06:34.836Z,97.52
2018-06-15T06:07:34.816Z,97.57
2018-06-15T06:08:34.797Z,98.54
2018-06-15T06:09:34.778Z,96.32
2018-06-15T06:10:34.558Z,97.33
2018-06-15T06:11:34.541Z,94.97
2018-06-15T06:12:34.519Z,91.93
2018-06-15T06:13:34.501Z,90.15
2018-06-15T06:14:34.485Z,89.86
2018-06-15T06:15:34.466Z,90.00
2018-06-15T06:16:34.445Z,89.51
2018-06-15T06:17:34.630Z,89.33
2018-06-15T06:18:34.412Z,91.79
2018-06-15T06:19:34.390Z,94.87
2018-06-15T06:20:34.390Z,96.89
2018-06-15T06:21:34.366Z,96.12
2018-06-15T06:22:34.338Z,92.17
2018-06-15T06:23:34.319Z,90.05
2018-06-15T06:24:34.309Z,89.37
2018-06-15T06:25:34.284Z,87.73
2018-06-15T06:26:34.267Z,87.50
2018-06-15T06:27:34.250Z,89.77
2018-06-15T06:28:34.232Z,89.91
2018-06-15T06:29:34.213Z,88.26
2018-06-15T06:30:34.197Z,87.59
2018-06-15T06:31:34.178Z,86.08
2018-06-15T06:32:34.165Z,87.02
2018-06-15T06:33:34.144Z,89.96
2018-06-15T06:34:34.126Z,90.69
2018-06-15T06:35:34.110Z,93.43
2018-06-15T06:36:34.093Z,96.42
2018-06-15T06:37:34.075Z,97.57
2018-06-15T06:38:34.058Z,94.82
2018-06-15T06:39:34.041Z,92.08
2018-06-15T06:40:34.023Z,90.72
2018-06-15T06:41:34.006Z,88.81
2018-06-15T06:42:33.988Z,88.37
2018-06-15T06:43:33.973Z,86.05
2018-06-15T06:44:33.952Z,87.60
2018-06-15T06:45:33.933Z,90.55
2018-06-15T06:46:33.918Z,92.08
2018-06-15T06:47:33.900Z,89.39
2018-06-15T06:48:33.883Z,89.19
2018-06-15T06:49:33.865Z,86.58
2018-06-15T06:50:33.858Z,85.38
2018-06-15T06:51:33.831Z,88.28
2018-06-15T06:52:33.812Z,88.85
2018-06-15T06:53:33.796Z,90.55
2018-06-15T06:54:33.783Z,91.99
2018-06-15T06:55:33.759Z,92.61
2018-06-15T06:56:33.744Z,94.11
2018-06-15T06:57:33.724Z,95.26
2018-06-15T06:58:33.777Z,91.31
2018-06-15T06:59:33.836Z,86.48
2018-06-15T07:00:33.669Z,83.64
2018-06-15T07:01:33.651Z,81.70
2018-06-15T07:02:33.640Z,81.51
2018-06-15T07:03:33.614Z,79.19
2018-06-15T07:04:33.597Z,79.19
2018-06-15T07:05:33.578Z,81.96
2018-06-15T07:06:33.561Z,83.56
2018-06-15T07:07:33.543Z,86.45
2018-06-15T07:08:33.526Z,87.03
2018-06-15T07:09:33.509Z,89.11
2018-06-15T07:10:33.491Z,91.61
2018-06-15T07:11:33.473Z,93.63
2018-06-15T07:12:33.455Z,93.53
2018-06-15T07:13:33.437Z,92.57
2018-06-15T07:14:33.420Z,87.94
2018-06-15T07:15:33.402Z,87.41
2018-06-15T07:16:33.386Z,87.85
2018-06-15T07:17:33.365Z,88.77
2018-06-15T07:18:33.346Z,90.94
2018-06-15T07:19:33.328Z,93.53
2018-06-15T07:20:33.312Z,90.93
2018-06-15T07:21:33.293Z,88.87
2018-06-15T07:22:33.274Z,90.07
2018-06-15T07:23:33.260Z,91.75
2018-06-15T07:24:33.238Z,92.52
2018-06-15T07:25:33.221Z,93.10
2018-06-15T07:26:33.201Z,92.13
2018-06-15T07:27:33.185Z,91.08
2018-06-15T07:28:33.166Z,89.73
2018-06-15T07:29:33.146Z,89.30
2018-06-15T07:30:33.126Z,89.88
2018-06-15T07:31:33.105Z,90.75
2018-06-15T07:32:33.086Z,90.65
2018-06-15T07:33:33.082Z,88.06
2018-06-15T07:34:33.048Z,88.68
2018-06-15T07:35:33.028Z,87.19
2018-06-15T07:36:33.009Z,82.98
2018-06-15T07:37:32.991Z,79.74
2018-06-15T07:38:32.970Z,76.15
2018-06-15T07:39:32.954Z,74.54
2018-06-15T07:40:32.939Z,72.55
2018-06-15T07:41:32.916Z,71.61
2018-06-15T07:42:32.901Z,76.80
2018-06-15T07:43:32.876Z,78.85
2018-06-15T07:44:32.858Z,81.88
2018-06-15T07:45:32.840Z,82.65
2018-06-15T07:46:32.824Z,82.85
2018-06-15T07:47:32.803Z,82.46
2018-06-15T07:48:32.793Z,81.79
2018-06-15T07:49:32.769Z,80.23
2018-06-15T07:50:32.748Z,76.80
2018-06-15T07:51:32.729Z,74.08
2018-06-15T07:52:32.775Z,71.94
2018-06-15T07:53:32.692Z,73.58
2018-06-15T07:54:32.880Z,71.48
2018-06-15T07:55:32.658Z,69.40
2018-06-15T07:56:32.638Z,68.91
2018-06-15T07:57:32.828Z,68.66
2018-06-15T07:58:32.806Z,68.21
2018-06-15T07:59:32.645Z,67.14
2018-06-15T08:00:32.778Z,68.88
2018-06-15T08:01:32.757Z,69.43
2018-06-15T08:02:32.742Z,70.30
2018-06-15T08:03:32.724Z,71.03
2018-06-15T08:04:32.709Z,70.84
2018-06-15T08:05:32.694Z,74.20
2018-06-15T08:06:32.480Z,76.61
2018-06-15T08:07:32.663Z,76.24
2018-06-15T08:08:32.647Z,72.00
2018-06-15T08:09:32.633Z,68.27
2018-06-15T08:10:32.417Z,65.17
2018-06-15T08:12:14.762Z,66.56
2018-06-15T08:13:14.548Z,70.13
2018-06-15T08:14:14.533Z,70.90
2018-06-15T08:15:14.521Z,71.50
2018-06-15T08:16:14.503Z,73.65
2018-06-15T08:17:14.489Z,75.09
2018-06-15T08:18:14.479Z,76.78
2018-06-15T08:19:14.461Z,78.19
2018-06-15T08:20:14.447Z,78.67
2018-06-15T08:21:14.435Z,79.77
2018-06-15T08:22:14.417Z,75.71
2018-06-15T08:23:14.401Z,72.38
2018-06-15T08:24:14.389Z,71.48
2018-06-15T08:25:14.370Z,72.60
2018-06-15T08:26:14.355Z,73.66
2018-06-15T08:27:14.345Z,72.34
2018-06-15T08:28:14.324Z,70.36
2018-06-15T08:29:14.307Z,69.71
2018-06-15T08:30:14.497Z,69.39
2018-06-15T08:31:14.281Z,71.15
2018-06-15T08:32:14.260Z,72.41
2018-06-15T08:33:14.245Z,71.22
2018-06-15T08:34:14.229Z,71.86
2018-06-15T08:35:14.213Z,68.59
2018-06-15T08:36:14.198Z,64.98
2018-06-15T08:37:14.383Z,63.43
2018-06-15T08:38:14.368Z,65.01
2018-06-15T08:39:14.151Z,67.81
2018-06-15T08:40:14.138Z,67.88
2018-06-15T08:41:14.118Z,68.55
2018-06-15T08:42:14.105Z,68.59
2018-06-15T08:43:14.088Z,67.11
2018-06-15T08:44:14.073Z,65.47
2018-06-15T08:45:14.061Z,64.43
2018-06-15T08:46:14.043Z,63.66
2018-06-15T08:47:14.034Z,61.95
2018-06-15T08:48:14.216Z,59.66
2018-06-15T08:49:13.999Z,58.74
2018-06-15T08:50:14.191Z,57.84
2018-06-15T08:51:14.176Z,58.82
2018-06-15T08:52:13.958Z,60.73
2018-06-15T08:53:13.944Z,64.56
2018-06-15T08:54:14.134Z,64.40
2018-06-15T08:55:13.922Z,63.31
2018-06-15T08:56:14.107Z,64.63
2018-06-15T08:57:13.900Z,64.24
2018-06-15T08:58:14.081Z,63.82
2018-06-15T08:59:14.070Z,60.21
2018-06-15T09:00:13.857Z,59.00
2018-06-15T09:01:16.665Z,58.26
2018-06-15T09:02:14.030Z,56.49
2018-06-15T09:03:14.020Z,57.09
2018-06-15T09:04:14.006Z,57.98
2018-06-15T09:05:13.791Z,61.60
2018-06-15T09:06:13.780Z,64.21
2018-06-15T09:07:13.766Z,67.07
2018-06-15T09:08:13.962Z,68.10
2018-06-15T09:09:13.741Z,69.09
2018-06-15T09:10:13.881Z,70.70
2018-06-15T09:11:16.942Z,71.50
2018-06-15T09:12:13.903Z,71.53
2018-06-15T09:13:13.888Z,73.80
2018-06-15T09:14:13.876Z,74.48
2018-06-15T09:15:13.859Z,75.69
2018-06-15T09:16:16.466Z,74.76
2018-06-15T09:17:13.828Z,74.13
2018-06-15T09:18:13.839Z,74.16
2018-06-15T09:19:13.799Z,73.10
2018-06-15T09:20:13.781Z,69.13
2018-06-15T09:21:13.564Z,67.04
2018-06-15T09:23:38.063Z,64.69
2018-06-15T09:24:37.848Z,61.47
2018-06-15T09:25:37.829Z,61.30
2018-06-15T09:26:37.813Z,60.59
2018-06-15T09:27:37.802Z,58.49
2018-06-15T09:28:37.993Z,58.78
2018-06-15T09:29:37.972Z,58.01
2018-06-15T09:30:37.753Z,57.65
2018-06-15T09:31:37.943Z,58.88
2018-06-15T09:32:37.739Z,59.79
2018-06-15T09:33:37.710Z,59.82
2018-06-15T09:34:37.900Z,59.95
2018-06-15T09:35:37.885Z,59.70
2018-06-15T09:36:37.669Z,60.47
2018-06-15T09:37:37.659Z,62.02
2018-06-15T09:38:37.644Z,60.63
2018-06-15T09:39:37.637Z,60.53
2018-06-15T09:40:38.630Z,58.82
2018-06-15T09:41:37.811Z,56.36
2018-06-15T09:42:37.796Z,56.41
2018-06-15T09:43:37.783Z,55.36
2018-06-15T09:44:37.772Z,56.95
2018-06-15T09:46:19.935Z,55.40
2018-06-15T09:47:19.912Z,55.81
2018-06-15T09:48:19.900Z,53.56
2018-06-15T09:49:19.889Z,52.23
2018-06-15T09:50:19.878Z,52.69
2018-06-15T09:51:19.867Z,53.15
2018-06-15T09:52:19.856Z,53.10
2018-06-15T09:53:19.846Z,51.79
2018-06-15T09:54:19.634Z,51.67
2018-06-15T09:55:19.629Z,53.29
2018-06-15T09:56:19.612Z,53.87
2018-06-15T09:57:19.602Z,54.26
2018-06-15T09:58:19.594Z,55.06
2018-06-15T09:59:19.580Z,54.75
2018-06-15T10:00:19.773Z,52.28
2018-06-15T10:01:19.559Z,49.46
2018-06-15T10:02:19.753Z,49.07
2018-06-15T10:03:19.743Z,48.58
2018-06-15T10:04:19.528Z,49.61
2018-06-15T10:05:19.523Z,51.11
2018-06-15T10:06:19.509Z,51.50
2018-06-15T10:07:19.501Z,52.76
2018-06-15T10:08:19.695Z,53.08
2018-06-15T10:09:19.681Z,51.70
2018-06-15T10:10:19.473Z,49.32
2018-06-15T10:11:19.662Z,48.37
2018-06-15T10:12:19.454Z,49.61
2018-06-15T10:13:19.643Z,49.46
2018-06-15T10:14:19.431Z,50.38
2018-06-15T10:15:22.244Z,50.94
2018-06-15T10:16:19.416Z,51.62
2018-06-15T10:17:19.417Z,51.62
2018-06-15T10:18:19.394Z,51.31
2018-06-15T10:19:19.387Z,51.18
2018-06-15T10:20:19.383Z,53.19
2018-06-15T10:21:19.365Z,55.11
2018-06-15T10:22:19.358Z,54.59
2018-06-15T10:23:19.347Z,52.68
2018-06-15T10:24:19.336Z,52.90
2018-06-15T10:25:19.326Z,51.52
2018-06-15T10:26:19.322Z,51.90
2018-06-15T10:27:19.516Z,51.40
2018-06-15T10:28:19.296Z,53.05
2018-06-15T10:29:19.286Z,50.19
2018-06-15T10:30:19.277Z,48.22
2018-06-15T10:31:19.268Z,46.35
2018-06-15T10:32:19.459Z,46.08
2018-06-15T10:33:19.449Z,48.41
2018-06-15T10:34:19.440Z,46.25
2018-06-15T10:35:19.227Z,43.85
2018-06-15T10:36:19.420Z,43.95
2018-06-15T10:37:19.214Z,47.57
2018-06-15T10:38:19.200Z,48.49
2018-06-15T10:39:19.226Z,50.41
2018-06-15T10:40:19.181Z,51.52
2018-06-15T10:42:47.128Z,55.09
2018-06-15T10:43:46.308Z,56.87
2018-06-15T10:44:43.675Z,59.61
2018-06-15T10:45:43.686Z,60.58
2018-06-15T10:46:43.451Z,60.86
2018-06-15T10:47:43.437Z,60.68
2018-06-15T10:48:43.425Z,61.80
2018-06-15T10:49:43.412Z,61.99
2018-06-15T10:50:43.399Z,62.48
2018-06-15T10:51:43.590Z,62.45
2018-06-15T10:52:46.398Z,64.18
2018-06-15T10:53:46.181Z,64.15
2018-06-15T10:54:46.774Z,64.73
2018-06-15T10:55:43.539Z,65.05
2018-06-15T10:56:43.314Z,64.37
2018-06-15T10:57:43.500Z,64.31
2018-06-15T10:58:43.484Z,62.99
2018-06-15T10:59:43.269Z,62.51
2018-06-15T11:00:43.250Z,61.35
2018-06-15T11:01:43.235Z,61.83
2018-06-15T11:02:43.218Z,61.44
2018-06-15T11:03:43.406Z,60.68
2018-06-15T11:04:43.190Z,61.71
2018-06-15T11:05:43.171Z,61.44
2018-06-15T11:06:43.153Z,60.61
2018-06-15T11:07:43.339Z,60.03
2018-06-15T11:08:43.124Z,59.83
2018-06-15T11:09:45.927Z,59.93
2018-06-15T11:10:43.290Z,60.00
2018-06-15T11:11:43.273Z,61.03
2018-06-15T11:12:43.254Z,61.32
2018-06-15T11:13:43.237Z,61.38
2018-06-15T11:14:43.020Z,61.96
2018-06-15T11:15:43.060Z,61.99
2018-06-15T11:16:42.984Z,61.74
2018-06-15T11:17:42.969Z,60.80
2018-06-15T11:18:42.951Z,59.64
2018-06-15T11:19:42.932Z,58.39
2018-06-15T11:20:42.916Z,57.84
2018-06-15T11:21:42.898Z,56.94
2018-06-15T11:22:42.882Z,56.87
2018-06-15T11:23:42.864Z,56.39
2018-06-15T11:24:42.847Z,56.68
2018-06-15T11:25:42.831Z,57.62
2018-06-15T11:26:42.814Z,57.71
2018-06-15T11:27:42.809Z,57.29
2018-06-15T11:28:42.983Z,55.15
2018-06-15T11:29:42.766Z,53.23
2018-06-15T11:30:42.750Z,52.39
2018-06-15T11:31:42.734Z,51.42
2018-06-15T11:32:42.921Z,52.61
2018-06-15T11:33:42.705Z,54.83
2018-06-15T11:34:43.097Z,53.81
2018-06-15T11:35:42.679Z,53.04
2018-06-15T11:36:42.668Z,52.75
2018-06-15T11:37:42.657Z,52.10
2018-06-15T11:38:42.640Z,50.57
2018-06-15T11:39:42.627Z,50.57
2018-06-15T11:40:42.816Z,48.18
2018-06-15T11:41:42.807Z,49.12
2018-06-15T11:42:42.594Z,49.44
2018-06-15T11:43:42.782Z,49.77
2018-06-15T11:44:42.570Z,48.69
2018-06-15T11:45:42.761Z,46.01
2018-06-15T11:46:42.550Z,44.33
2018-06-15T11:47:42.738Z,43.16
2018-06-15T11:48:42.732Z,43.51
2018-06-15T11:49:42.718Z,44.58
2018-06-15T11:50:42.708Z,43.80
2018-06-15T11:51:42.497Z,43.22
2018-06-15T11:52:42.486Z,43.90
2018-06-15T11:54:24.841Z,44.23
2018-06-15T11:55:24.630Z,44.58
2018-06-15T11:56:24.828Z,43.54
2018-06-15T11:57:24.867Z,42.80
2018-06-15T11:58:24.809Z,42.49
2018-06-15T11:59:25.400Z,42.87
2018-06-15T12:00:24.786Z,42.76
2018-06-15T12:01:24.584Z,42.81
2018-06-15T12:02:24.769Z,45.47
2018-06-15T12:03:24.555Z,48.13
2018-06-15T12:04:24.549Z,49.39
2018-06-15T12:05:24.791Z,48.81
2018-06-15T12:06:24.529Z,48.76
2018-06-15T12:07:24.520Z,48.30
2018-06-15T12:08:24.513Z,48.18
2018-06-15T12:09:24.502Z,48.79
2018-06-15T12:10:24.495Z,48.69
2018-06-15T12:11:24.488Z,49.02
2018-06-15T12:12:24.476Z,48.08
2018-06-15T12:13:24.465Z,47.91
2018-06-15T12:14:24.455Z,48.13
2018-06-15T12:15:27.675Z,47.67
2018-06-15T12:16:24.436Z,46.84
2018-06-15T12:17:24.428Z,46.26
2018-06-15T12:18:24.422Z,45.53
2018-06-15T12:19:24.409Z,44.64
2018-06-15T12:20:24.403Z,44.56
2018-06-15T12:21:24.391Z,44.81
2018-06-15T12:22:24.384Z,44.54
2018-06-15T12:23:24.575Z,44.30
2018-06-15T12:24:24.567Z,46.60
2018-06-15T12:25:24.558Z,46.12
2018-06-15T12:26:24.350Z,47.33
2018-06-15T12:27:24.338Z,48.18
2018-06-15T12:28:24.332Z,49.73
2018-06-15T12:29:24.321Z,48.66
2018-06-15T12:30:24.315Z,48.59
2018-06-15T12:31:24.304Z,48.01
2018-06-15T12:32:24.296Z,48.13
2018-06-15T12:33:24.287Z,47.96
2018-06-15T12:34:24.278Z,47.16
2018-06-15T12:35:24.268Z,48.08
2018-06-15T12:36:24.260Z,49.00
2018-06-15T12:37:24.251Z,48.30
2018-06-15T12:38:24.242Z,45.92
2018-06-15T12:39:24.233Z,47.57
2018-06-15T12:40:24.226Z,46.43
2018-06-15T12:41:24.219Z,45.95
2018-06-15T12:42:24.210Z,46.24
2018-06-15T12:43:24.402Z,46.70
2018-06-15T12:44:24.393Z,48.08
2018-06-15T12:45:24.185Z,46.77
2018-06-15T12:46:24.183Z,45.41
2018-06-15T12:47:24.368Z,44.65
2018-06-15T12:48:24.364Z,44.44
2018-06-15T12:49:24.353Z,44.34
2018-06-15T12:50:24.141Z,44.54
2018-06-15T12:51:24.132Z,46.36
2018-06-15T12:52:24.123Z,49.32
2018-06-15T12:53:24.966Z,48.76
2018-06-15T12:54:24.121Z,49.15
2018-06-15T12:55:24.100Z,48.44
2018-06-15T12:56:24.091Z,48.03
2018-06-15T12:57:24.080Z,48.86